Suamico, Wisconsin
Current Conditions -  °F | °C
As of 10:10 AM on Wednesday 26 Nov 2014 (Local Time) from KGRB Reporting Station
Haze Haze  
Wind Chill: 19°   Ceiling: 1400
Heat Index: 19°   Visibility: 4mi
Dew Point: 19°   Wind: 0mph
Humidity: 100%   Direction: NA
Pressure: 30.19"   Gusts: NA
Location:  44.63°N, 88.04°W
Report Text: KGRB 261610Z 00000KT 4SM BR OVC014 M07/M07 A3019 RMK AO2 T10721072
Loading
Personal Weather Stations






























Interactive Weather Map New forecast layout! Learn more

10-Day Weather Forecast

Advertisements
Track Severe Weather on mobile